Wetterdaten: Woche 16.12.13 - 22.12.13 (KW51)
Datum Zeit Temp. A. Feuchte A. Luftdruck Regen Wind Richtung Taupunkt Windchill Windben
16.12.2013 00:00 4,0 C 90 % 1026,8 hPa 0,0 l/m 2,9 km/h (1 Bft) S-SO 2,5 C 4,0 C 7,5 km/h (2 Bft)
16.12.2013 01:00 4,0 C 89 % 1026,4 hPa 0,0 l/m 3,4 km/h (1 Bft) S-SW 2,4 C 4,0 C 7,5 km/h (2 Bft)
16.12.2013 02:00 3,4 C 88 % 1026,1 hPa 0,0 l/m 1,4 km/h (1 Bft) S-SW 1,6 C 3,4 C 3,9 km/h (1 Bft)
16.12.2013 03:00 3,3 C 87 % 1025,7 hPa 0,0 l/m 2,5 km/h (1 Bft) S-SW 1,3 C 3,3 C 6,0 km/h (2 Bft)
16.12.2013 04:00 3,7 C 83 % 1025,2 hPa 0,0 l/m 3,1 km/h (1 Bft) S-SW 1,0 C 3,7 C 7,3 km/h (2 Bft)
16.12.2013 05:00 3,5 C 81 % 1024,7 hPa 0,0 l/m 1,7 km/h (1 Bft) S-SO 0,6 C 3,5 C 4,1 km/h (1 Bft)
16.12.2013 06:00 3,0 C 82 % 1024,5 hPa 0,0 l/m 2,0 km/h (1 Bft) S-SW 0,2 C 3,0 C 5,1 km/h (1 Bft)
16.12.2013 07:00 3,4 C 80 % 1024,1 hPa 0,0 l/m 3,5 km/h (1 Bft) SW 0,2 C 3,4 C 7,4 km/h (2 Bft)
16.12.2013 08:00 3,2 C 80 % 1024,1 hPa 0,0 l/m 1,3 km/h (1 Bft) S-SW 0,1 C 3,2 C 3,3 km/h (1 Bft)
16.12.2013 09:00 3,7 C 80 % 1024,0 hPa 0,0 l/m 3,6 km/h (1 Bft) SW 0,6 C 3,7 C 7,5 km/h (2 Bft)
16.12.2013 10:00 5,4 C 78 % 1024,1 hPa 0,0 l/m 5,6 km/h (2 Bft) SW 1,8 C 5,4 C 11,6 km/h (2 Bft)
16.12.2013 11:00 6,8 C 74 % 1023,9 hPa 0,0 l/m 7,4 km/h (2 Bft) SW 2,6 C 5,8 C 9,5 km/h (2 Bft)
16.12.2013 12:00 8,3 C 72 % 1023,7 hPa 0,0 l/m 5,9 km/h (2 Bft) SW 3,6 C 7,9 C 11,9 km/h (2 Bft)
16.12.2013 13:00 9,3 C 70 % 1023,8 hPa 0,0 l/m 7,0 km/h (2 Bft) S-SW 4,2 C 8,8 C 15,8 km/h (3 Bft)
16.12.2013 14:00 9,6 C 69 % 1023,7 hPa 0,0 l/m 7,2 km/h (2 Bft) S-SW 4,3 C 9,0 C 14,8 km/h (3 Bft)
16.12.2013 15:00 8,8 C 72 % 1023,8 hPa 0,0 l/m 5,5 km/h (2 Bft) S-SW 4,0 C 8,8 C 10,9 km/h (2 Bft)
16.12.2013 16:00 7,3 C 76 % 1023,7 hPa 0,0 l/m 3,7 km/h (1 Bft) S-SW 3,3 C 7,3 C 7,6 km/h (2 Bft)
16.12.2013 17:00 7,0 C 76 % 1023,5 hPa 0,0 l/m 5,5 km/h (2 Bft) S-SW 3,0 C 6,9 C 11,3 km/h (2 Bft)
16.12.2013 18:00 6,9 C 74 % 1023,4 hPa 0,0 l/m 4,2 km/h (1 Bft) W-NW 2,6 C 6,9 C 8,2 km/h (2 Bft)
16.12.2013 19:00 6,7 C 72 % 1023,8 hPa 0,0 l/m 4,7 km/h (1 Bft) S-SW 2,0 C 6,7 C 10,1 km/h (2 Bft)
16.12.2013 20:00 6,1 C 73 % 1024,0 hPa 0,0 l/m 3,4 km/h (1 Bft) S-SW 1,5 C 6,1 C 7,4 km/h (2 Bft)
16.12.2013 21:00 5,5 C 74 % 1024,0 hPa 0,0 l/m 3,5 km/h (1 Bft) S-SW 1,2 C 5,5 C 7,1 km/h (2 Bft)
16.12.2013 22:00 5,1 C 75 % 1024,0 hPa 0,0 l/m 1,5 km/h (1 Bft) S 0,9 C 5,1 C 4,5 km/h (1 Bft)
16.12.2013 23:00 4,3 C 77 % 1024,1 hPa 0,0 l/m 0,7 km/h (0 Bft) S 0,7 C 4,3 C 2,5 km/h (1 Bft)
17.12.2013 00:00 4,1 C 79 % 1024,0 hPa 0,0 l/m 0,6 km/h (0 Bft) S 0,7 C 4,1 C 2,5 km/h (1 Bft)
17.12.2013 01:00 5,6 C 76 % 1023,8 hPa 0,0 l/m 3,1 km/h (1 Bft) S-SW 1,7 C 5,6 C 7,0 km/h (2 Bft)
17.12.2013 02:00 6,2 C 75 % 1023,8 hPa 0,0 l/m 2,4 km/h (1 Bft) SW 2,1 C 6,2 C 5,5 km/h (2 Bft)
17.12.2013 03:00 5,2 C 78 % 1023,6 hPa 0,0 l/m 0,7 km/h (0 Bft) S 1,6 C 5,2 C 2,3 km/h (1 Bft)
17.12.2013 04:00 4,7 C 79 % 1023,0 hPa 0,0 l/m 1,4 km/h (1 Bft) S-SW 1,3 C 4,7 C 4,0 km/h (1 Bft)
17.12.2013 05:00 4,8 C 78 % 1022,7 hPa 0,0 l/m 1,8 km/h (1 Bft) SW 1,3 C 4,8 C 4,7 km/h (1 Bft)
17.12.2013 06:00 5,1 C 77 % 1022,7 hPa 0,0 l/m 1,6 km/h (1 Bft) S-SW 1,4 C 5,1 C 4,3 km/h (1 Bft)
17.12.2013 07:00 4,3 C 79 % 1022,9 hPa 0,0 l/m 0,5 km/h (0 Bft) N 0,9 C 4,3 C 2,0 km/h (1 Bft)
17.12.2013 08:00 4,2 C 79 % 1023,0 hPa 0,0 l/m 1,1 km/h (1 Bft) SW 0,9 C 4,2 C 2,8 km/h (1 Bft)
17.12.2013 09:00 4,4 C 79 % 1023,2 hPa 0,0 l/m 0,8 km/h (0 Bft) S-SW 1,1 C 4,4 C 2,5 km/h (1 Bft)
17.12.2013 10:00 6,4 C 76 % 1023,5 hPa 0,0 l/m 3,5 km/h (1 Bft) S-SW 2,4 C 6,4 C 7,5 km/h (2 Bft)
17.12.2013 11:00 8,0 C 71 % 1023,8 hPa 0,0 l/m 3,9 km/h (1 Bft) S-SW 3,1 C 8,0 C 9,5 km/h (2 Bft)
17.12.2013 12:00 8,7 C 70 % 1023,9 hPa 0,0 l/m 3,9 km/h (1 Bft) S-SW 3,5 C 8,7 C 9,5 km/h (2 Bft)
17.12.2013 13:00 9,0 C 70 % 1023,7 hPa 0,0 l/m 4,2 km/h (1 Bft) S-SW 3,8 C 9,0 C 9,8 km/h (2 Bft)
17.12.2013 14:00 8,6 C 73 % 1023,8 hPa 0,0 l/m 2,6 km/h (1 Bft) S-SW 4,0 C 8,6 C 6,8 km/h (2 Bft)
17.12.2013 15:00 8,2 C 76 % 1024,3 hPa 0,0 l/m 0,8 km/h (0 Bft) SW 4,2 C 8,2 C 2,7 km/h (1 Bft)
17.12.2013 16:00 7,8 C 79 % 1024,7 hPa 0,0 l/m 0,5 km/h (0 Bft) W-NW 4,3 C 7,8 C 1,3 km/h (1 Bft)
17.12.2013 17:00 7,4 C 80 % 1025,1 hPa 0,0 l/m 1,2 km/h (1 Bft) NW 4,3 C 7,4 C 3,1 km/h (1 Bft)
17.12.2013 18:00 6,8 C 83 % 1025,4 hPa 0,0 l/m 0,7 km/h (0 Bft) N-NW 4,1 C 6,8 C 1,6 km/h (1 Bft)
17.12.2013 19:00 5,9 C 87 % 1025,6 hPa 0,0 l/m 0,0 km/h (0 Bft) N 3,9 C 5,9 C 0,1 km/h (0 Bft)
17.12.2013 20:00 6,2 C 86 % 1025,4 hPa 0,0 l/m 0,7 km/h (0 Bft) SO 4,0 C 6,2 C 2,0 km/h (1 Bft)
17.12.2013 21:00 6,0 C 87 % 1025,3 hPa 0,0 l/m 0,1 km/h (0 Bft) N 4,0 C 6,0 C 0,4 km/h (0 Bft)
17.12.2013 22:00 5,4 C 89 % 1024,9 hPa 0,0 l/m 0,0 km/h (0 Bft) N 3,7 C 5,4 C 0,0 km/h (0 Bft)
17.12.2013 23:00 5,6 C 88 % 1024,5 hPa 0,0 l/m 0,0 km/h (0 Bft) N 3,8 C 5,6 C 0,0 km/h (0 Bft)
18.12.2013 00:00 5,8 C 87 % 1024,0 hPa 0,0 l/m 0,6 km/h (0 Bft) O-SO 3,7 C 5,8 C 2,4 km/h (1 Bft)
18.12.2013 01:00 4,4 C 88 % 1023,4 hPa 0,0 l/m 0,0 km/h (0 Bft) N 2,7 C 4,4 C 0,1 km/h (0 Bft)
18.12.2013 02:00 3,3 C 91 % 1023,0 hPa 0,0 l/m 0,0 km/h (0 Bft) N 1,9 C 3,3 C 0,0 km/h (0 Bft)
18.12.2013 03:00 2,7 C 91 % 1022,4 hPa 0,0 l/m 0,0 km/h (0 Bft) N 1,4 C 2,7 C 0,0 km/h (0 Bft)
18.12.2013 04:00 2,5 C 92 % 1021,7 hPa 0,0 l/m 0,0 km/h (0 Bft) N 1,3 C 2,5 C 0,1 km/h (0 Bft)
18.12.2013 05:00 2,2 C 91 % 1021,4 hPa 0,0 l/m 0,2 km/h (0 Bft) O-SO 0,9 C 2,2 C 0,6 km/h (0 Bft)
18.12.2013 06:00 2,0 C 92 % 1021,1 hPa 0,0 l/m 0,0 km/h (0 Bft) N 0,9 C 2,0 C 0,3 km/h (0 Bft)
18.12.2013 07:00 2,2 C 91 % 1020,9 hPa 0,0 l/m 0,0 km/h (0 Bft) N 0,9 C 2,2 C 0,3 km/h (0 Bft)
18.12.2013 08:00 2,8 C 90 % 1020,6 hPa 0,0 l/m 0,3 km/h (0 Bft) SO 1,3 C 2,8 C 0,9 km/h (0 Bft)
18.12.2013 09:00 3,7 C 87 % 1020,3 hPa 0,0 l/m 0,4 km/h (0 Bft) O 1,8 C 3,7 C 2,6 km/h (1 Bft)
18.12.2013 10:00 4,5 C 86 % 1020,5 hPa 0,0 l/m 0,5 km/h (0 Bft) S-SW 2,4 C 4,5 C 1,9 km/h (1 Bft)
18.12.2013 11:00 5,8 C 83 % 1020,1 hPa 0,0 l/m 2,0 km/h (1 Bft) SW 3,2 C 5,8 C 5,0 km/h (1 Bft)
18.12.2013 12:00 7,2 C 80 % 1019,6 hPa 0,0 l/m 5,0 km/h (1 Bft) SW 3,9 C 7,2 C 10,8 km/h (2 Bft)
18.12.2013 13:00 7,9 C 78 % 1018,9 hPa 0,0 l/m 5,2 km/h (1 Bft) S-SW 4,3 C 7,8 C 10,5 km/h (2 Bft)
18.12.2013 14:00 7,9 C 79 % 1018,4 hPa 0,0 l/m 5,6 km/h (2 Bft) S 4,5 C 7,8 C 11,4 km/h (2 Bft)
18.12.2013 15:00 7,8 C 81 % 1018,3 hPa 0,0 l/m 5,0 km/h (1 Bft) S 4,7 C 7,8 C 10,6 km/h (2 Bft)
18.12.2013 16:00 6,7 C 84 % 1018,1 hPa 0,0 l/m 3,5 km/h (1 Bft) S 4,1 C 6,7 C 7,6 km/h (2 Bft)
18.12.2013 17:00 6,4 C 84 % 1017,7 hPa 0,0 l/m 4,0 km/h (1 Bft) S-SW 4,0 C 6,4 C 8,7 km/h (2 Bft)
18.12.2013 18:00 6,1 C 86 % 1017,0 hPa 0,0 l/m 2,9 km/h (1 Bft) S 3,9 C 6,1 C 6,7 km/h (2 Bft)
18.12.2013 19:00 5,1 C 88 % 1016,2 hPa 0,0 l/m 0,2 km/h (0 Bft) N 3,3 C 5,1 C 1,1 km/h (0 Bft)
18.12.2013 20:00 3,5 C 91 % 1015,4 hPa 0,0 l/m 0,0 km/h (0 Bft) N 2,1 C 3,5 C 0,4 km/h (0 Bft)
18.12.2013 21:00 2,5 C 92 % 1014,7 hPa 0,0 l/m 0,0 km/h (0 Bft) N 1,3 C 2,5 C 0,0 km/h (0 Bft)
18.12.2013 22:00 2,5 C 93 % 1013,9 hPa 0,0 l/m 0,0 km/h (0 Bft) N 1,5 C 2,5 C 0,0 km/h (0 Bft)
18.12.2013 23:00 2,7 C 93 % 1013,1 hPa 0,0 l/m 0,0 km/h (0 Bft) N 1,6 C 2,7 C 0,0 km/h (0 Bft)
19.12.2013 00:00 3,2 C 93 % 1011,9 hPa 0,0 l/m 0,7 km/h (0 Bft) O-SO 2,1 C 3,2 C 1,3 km/h (1 Bft)
19.12.2013 01:00 4,0 C 91 % 1010,5 hPa 0,0 l/m 1,1 km/h (1 Bft) O-SO 2,7 C 4,0 C 3,5 km/h (1 Bft)
19.12.2013 02:00 3,3 C 91 % 1009,7 hPa 0,0 l/m 0,0 km/h (0 Bft) N 1,9 C 3,3 C 0,0 km/h (0 Bft)
19.12.2013 03:00 2,8 C 92 % 1008,8 hPa 0,0 l/m 0,0 km/h (0 Bft) N 1,6 C 2,8 C 0,0 km/h (0 Bft)
19.12.2013 04:00 3,0 C 91 % 1007,8 hPa 0,0 l/m 1,4 km/h (1 Bft) O 1,6 C 3,0 C 2,9 km/h (1 Bft)
19.12.2013 05:00 4,8 C 87 % 1006,3 hPa 0,0 l/m 4,3 km/h (1 Bft) S-SO 2,8 C 4,8 C 9,0 km/h (2 Bft)
19.12.2013 06:00 5,4 C 84 % 1005,6 hPa 0,0 l/m 4,9 km/h (1 Bft) SO 2,9 C 5,2 C 10,1 km/h (2 Bft)
19.12.2013 07:00 5,4 C 85 % 1005,6 hPa 0,4 l/m 2,0 km/h (1 Bft) S-SO 3,1 C 5,4 C 5,2 km/h (1 Bft)
19.12.2013 08:00 5,2 C 90 % 1005,1 hPa 1,4 l/m 4,0 km/h (1 Bft) SO 3,6 C 5,2 C 8,2 km/h (2 Bft)
19.12.2013 09:00 5,5 C 91 % 1005,0 hPa 1,8 l/m 4,6 km/h (1 Bft) S 4,2 C 5,5 C 9,9 km/h (2 Bft)
19.12.2013 10:00 5,8 C 92 % 1004,8 hPa 0,2 l/m 3,1 km/h (1 Bft) SO 4,7 C 5,8 C 6,7 km/h (2 Bft)
19.12.2013 11:00 6,8 C 91 % 1004,6 hPa 0,0 l/m 3,9 km/h (1 Bft) S-SW 5,4 C 6,7 C 7,8 km/h (2 Bft)
19.12.2013 12:00 8,0 C 88 % 1004,6 hPa 0,0 l/m 8,1 km/h (2 Bft) SW 6,1 C 6,7 C 18,2 km/h (3 Bft)
19.12.2013 13:00 8,3 C 87 % 1004,7 hPa 0,0 l/m 9,3 km/h (2 Bft) S 6,3 C 6,2 C 18,6 km/h (3 Bft)
19.12.2013 14:00 8,4 C 87 % 1005,2 hPa 0,0 l/m 6,5 km/h (2 Bft) W-NW 6,4 C 7,7 C 14,2 km/h (3 Bft)
19.12.2013 15:00 7,8 C 91 % 1006,2 hPa 0,4 l/m 4,3 km/h (1 Bft) S 6,4 C 7,8 C 9,5 km/h (2 Bft)
19.12.2013 16:00 7,4 C 91 % 1006,8 hPa 0,0 l/m 4,5 km/h (1 Bft) S 6,1 C 7,4 C 8,8 km/h (2 Bft)
19.12.2013 17:00 7,7 C 90 % 1008,2 hPa 0,2 l/m 3,8 km/h (1 Bft) SW 6,2 C 7,7 C 10,5 km/h (2 Bft)
19.12.2013 18:00 7,3 C 91 % 1009,0 hPa 0,0 l/m 1,9 km/h (1 Bft) SW 5,9 C 7,3 C 5,2 km/h (1 Bft)
19.12.2013 19:00 6,7 C 91 % 1010,0 hPa 0,0 l/m 2,3 km/h (1 Bft) W 5,4 C 6,7 C 6,3 km/h (2 Bft)
19.12.2013 20:00 5,8 C 91 % 1011,0 hPa 0,0 l/m 1,2 km/h (1 Bft) W-NW 4,5 C 5,8 C 4,3 km/h (1 Bft)
19.12.2013 21:00 4,8 C 93 % 1012,2 hPa 0,0 l/m 0,0 km/h (0 Bft) N 3,8 C 4,8 C 0,0 km/h (0 Bft)
19.12.2013 22:00 4,1 C 94 % 1012,9 hPa 0,0 l/m 0,0 km/h (0 Bft) N 3,3 C 4,1 C 0,0 km/h (0 Bft)
19.12.2013 23:00 3,4 C 95 % 1013,9 hPa 0,2 l/m 0,0 km/h (0 Bft) N 2,6 C 3,4 C 0,0 km/h (0 Bft)
20.12.2013 00:00 1,2 C 94 % 1014,6 hPa 0,0 l/m 0,0 km/h (0 Bft) N 0,4 C 1,2 C 0,0 km/h (0 Bft)
20.12.2013 01:00 0,2 C 95 % 1015,1 hPa 0,0 l/m 0,0 km/h (0 Bft) N -0,5 C 0,2 C 0,0 km/h (0 Bft)
20.12.2013 02:00 -0,7 C 95 % 1015,6 hPa 0,0 l/m 0,0 km/h (0 Bft) N -1,4 C -0,7 C 0,0 km/h (0 Bft)
20.12.2013 03:00 -1,2 C 95 % 1015,9 hPa 0,0 l/m 0,0 km/h (0 Bft) N -1,8 C -1,2 C 0,0 km/h (0 Bft)
20.12.2013 04:00 -1,0 C 96 % 1016,5 hPa 0,0 l/m 0,0 km/h (0 Bft) N -1,6 C -1,0 C 0,0 km/h (0 Bft)
20.12.2013 05:00 -0,8 C 96 % 1016,9 hPa 0,0 l/m 0,0 km/h (0 Bft) N -1,4 C -0,8 C 0,0 km/h (0 Bft)
20.12.2013 06:00 -0,9 C 96 % 1017,3 hPa 0,0 l/m 0,0 km/h (0 Bft) N -1,4 C -0,9 C 0,0 km/h (0 Bft)
20.12.2013 07:00 -0,6 C 96 % 1017,7 hPa 0,0 l/m 0,0 km/h (0 Bft) N -1,2 C -0,6 C 0,0 km/h (0 Bft)
20.12.2013 08:00 -0,3 C 96 % 1018,4 hPa 0,0 l/m 0,0 km/h (0 Bft) N -0,8 C -0,3 C 0,0 km/h (0 Bft)
20.12.2013 09:00 -0,2 C 96 % 1019,1 hPa 0,0 l/m 0,0 km/h (0 Bft) N -0,8 C -0,2 C 0,0 km/h (0 Bft)
20.12.2013 10:00 0,6 C 96 % 1019,8 hPa 0,0 l/m 0,0 km/h (0 Bft) N 0,0 C 0,6 C 0,0 km/h (0 Bft)
20.12.2013 11:00 2,5 C 97 % 1020,3 hPa 0,0 l/m 0,4 km/h (0 Bft) SW 2,1 C 2,5 C 1,2 km/h (1 Bft)
20.12.2013 12:00 4,1 C 97 % 1020,7 hPa 0,0 l/m 2,1 km/h (1 Bft) W-SW 3,7 C 4,1 C 6,0 km/h (2 Bft)
20.12.2013 13:00 4,8 C 97 % 1021,1 hPa 0,2 l/m 3,3 km/h (1 Bft) SW 4,3 C 4,8 C 8,4 km/h (2 Bft)
20.12.2013 14:00 5,3 C 93 % 1022,0 hPa 0,0 l/m 5,1 km/h (1 Bft) W-NW 4,2 C 5,2 C 12,6 km/h (3 Bft)
20.12.2013 15:00 5,1 C 89 % 1023,1 hPa 0,0 l/m 4,4 km/h (1 Bft) SW 3,5 C 5,1 C 11,3 km/h (2 Bft)
20.12.2013 16:00 4,4 C 89 % 1024,0 hPa 0,0 l/m 3,3 km/h (1 Bft) S-SW 2,7 C 4,4 C 8,6 km/h (2 Bft)
20.12.2013 17:00 4,2 C 89 % 1025,0 hPa 0,0 l/m 4,0 km/h (1 Bft) S-SW 2,4 C 4,1 C 9,5 km/h (2 Bft)
20.12.2013 18:00 3,5 C 89 % 1025,3 hPa 0,0 l/m 3,4 km/h (1 Bft) SW 1,9 C 3,5 C 8,3 km/h (2 Bft)
20.12.2013 19:00 2,9 C 90 % 1025,8 hPa 0,0 l/m 3,0 km/h (1 Bft) S-SW 1,5 C 2,9 C 8,4 km/h (2 Bft)
20.12.2013 20:00 2,8 C 90 % 1026,3 hPa 0,0 l/m 2,6 km/h (1 Bft) SW 1,3 C 2,8 C 7,0 km/h (2 Bft)
20.12.2013 21:00 2,5 C 90 % 1026,8 hPa 0,0 l/m 3,3 km/h (1 Bft) S-SW 1,0 C 2,5 C 7,7 km/h (2 Bft)
20.12.2013 22:00 2,2 C 90 % 1027,0 hPa 0,0 l/m 3,7 km/h (1 Bft) SW 0,7 C 2,2 C 8,0 km/h (2 Bft)
20.12.2013 23:00 2,0 C 90 % 1027,2 hPa 0,0 l/m 4,3 km/h (1 Bft) SW 0,6 C 2,0 C 9,8 km/h (2 Bft)
21.12.2013 00:00 2,2 C 90 % 1027,2 hPa 0,0 l/m 4,3 km/h (1 Bft) S-SW 0,7 C 2,2 C 9,1 km/h (2 Bft)
21.12.2013 01:00 2,0 C 90 % 1027,2 hPa 0,0 l/m 5,9 km/h (2 Bft) S-SW 0,5 C 1,7 C 11,8 km/h (2 Bft)
21.12.2013 02:00 2,4 C 89 % 1027,2 hPa 0,0 l/m 6,8 km/h (2 Bft) S-SW 0,8 C 1,9 C 14,0 km/h (3 Bft)
21.12.2013 03:00 2,7 C 89 % 1026,8 hPa 0,0 l/m 6,1 km/h (2 Bft) SW 1,1 C 2,5 C 12,2 km/h (2 Bft)
21.12.2013 04:00 2,8 C 88 % 1026,3 hPa 0,0 l/m 7,2 km/h (2 Bft) S-SW 1,1 C 1,9 C 16,1 km/h (3 Bft)
21.12.2013 05:00 3,2 C 87 % 1025,9 hPa 0,0 l/m 9,1 km/h (2 Bft) S-SW 1,2 C 0,8 C 18,2 km/h (3 Bft)
21.12.2013 06:00 3,5 C 85 % 1025,5 hPa 0,0 l/m 10,7 km/h (2 Bft) S-SW 1,3 C 0,0 C 20,1 km/h (4 Bft)
21.12.2013 07:00 3,6 C 84 % 1025,0 hPa 0,0 l/m 10,8 km/h (2 Bft) SW 1,1 C 0,0 C 20,8 km/h (4 Bft)
21.12.2013 08:00 3,9 C 82 % 1024,8 hPa 0,0 l/m 10,8 km/h (2 Bft) S 1,1 C 0,2 C 19,8 km/h (4 Bft)
21.12.2013 09:00 4,2 C 82 % 1024,9 hPa 0,0 l/m 10,9 km/h (2 Bft) S-SW 1,4 C 0,6 C 23,1 km/h (4 Bft)
21.12.2013 10:00 4,8 C 80 % 1024,8 hPa 0,0 l/m 10,4 km/h (2 Bft) SW 1,7 C 1,7 C 20,6 km/h (4 Bft)
21.12.2013 11:00 5,3 C 78 % 1024,4 hPa 0,0 l/m 10,6 km/h (2 Bft) SW 1,8 C 2,0 C 21,4 km/h (4 Bft)
21.12.2013 12:00 5,7 C 77 % 1023,9 hPa 0,0 l/m 9,5 km/h (2 Bft) SW 1,9 C 3,3 C 19,6 km/h (3 Bft)
21.12.2013 13:00 5,9 C 76 % 1023,5 hPa 0,0 l/m 9,9 km/h (2 Bft) S-SW 2,0 C 3,2 C 19,3 km/h (3 Bft)
21.12.2013 14:00 6,0 C 75 % 1023,2 hPa 0,0 l/m 9,7 km/h (2 Bft) S-SW 1,9 C 3,5 C 19,3 km/h (3 Bft)
21.12.2013 15:00 5,8 C 75 % 1022,6 hPa 0,0 l/m 8,9 km/h (2 Bft) S-SW 1,7 C 3,7 C 17,7 km/h (3 Bft)
21.12.2013 16:00 5,6 C 73 % 1022,0 hPa 0,0 l/m 11,0 km/h (2 Bft) S-SW 1,1 C 2,1 C 22,1 km/h (4 Bft)
21.12.2013 17:00 5,4 C 72 % 1021,8 hPa 0,0 l/m 9,6 km/h (2 Bft) S-SW 0,7 C 2,8 C 19,0 km/h (3 Bft)
21.12.2013 18:00 5,8 C 68 % 1021,5 hPa 0,0 l/m 10,5 km/h (2 Bft) SW 0,3 C 2,7 C 21,0 km/h (4 Bft)
21.12.2013 19:00 5,8 C 65 % 1020,5 hPa 0,0 l/m 10,7 km/h (2 Bft) S -0,2 C 2,6 C 21,6 km/h (4 Bft)
21.12.2013 20:00 5,7 C 63 % 1019,7 hPa 0,0 l/m 11,3 km/h (2 Bft) S-SW -0,7 C 2,0 C 21,8 km/h (4 Bft)
21.12.2013 21:00 5,3 C 63 % 1018,9 hPa 0,0 l/m 11,1 km/h (2 Bft) S-SW -1,1 C 1,7 C 22,9 km/h (4 Bft)
21.12.2013 22:00 4,9 C 66 % 1017,9 hPa 0,0 l/m 12,7 km/h (3 Bft) S-SW -1,0 C 0,2 C 23,6 km/h (4 Bft)
21.12.2013 23:00 5,2 C 64 % 1017,1 hPa 0,0 l/m 13,2 km/h (3 Bft) SW -1,0 C 0,3 C 25,3 km/h (4 Bft)
22.12.2013 00:00 5,7 C 63 % 1016,1 hPa 0,0 l/m 12,5 km/h (2 Bft) S-SW -0,8 C 1,3 C 24,5 km/h (4 Bft)
22.12.2013 01:00 6,0 C 63 % 1015,8 hPa 0,0 l/m 10,1 km/h (2 Bft) SW -0,5 C 3,2 C 19,5 km/h (3 Bft)
22.12.2013 02:00 6,4 C 62 % 1015,7 hPa 0,0 l/m 7,8 km/h (2 Bft) SW -0,3 C 5,2 C 16,8 km/h (3 Bft)
22.12.2013 03:00 6,4 C 67 % 1015,7 hPa 0,0 l/m 8,3 km/h (2 Bft) SW 0,8 C 4,9 C 16,8 km/h (3 Bft)
22.12.2013 04:00 6,0 C 72 % 1015,5 hPa 0,0 l/m 8,8 km/h (2 Bft) S 1,3 C 4,0 C 17,2 km/h (3 Bft)
22.12.2013 05:00 5,9 C 77 % 1015,6 hPa 0,0 l/m 5,8 km/h (2 Bft) SW 2,2 C 5,7 C 13,5 km/h (3 Bft)
22.12.2013 06:00 6,4 C 77 % 1015,5 hPa 0,0 l/m 6,6 km/h (2 Bft) S-SW 2,7 C 6,0 C 14,6 km/h (3 Bft)
22.12.2013 07:00 6,6 C 76 % 1015,3 hPa 0,0 l/m 7,4 km/h (2 Bft) S-SW 2,7 C 5,7 C 16,2 km/h (3 Bft)
22.12.2013 08:00 6,4 C 78 % 1015,5 hPa 0,0 l/m 7,5 km/h (2 Bft) SW 2,8 C 5,5 C 17,7 km/h (3 Bft)
22.12.2013 09:00 6,7 C 81 % 1015,7 hPa 0,0 l/m 8,2 km/h (2 Bft) S-SW 3,7 C 5,2 C 18,4 km/h (3 Bft)
22.12.2013 10:00 6,9 C 82 % 1015,9 hPa 0,0 l/m 6,7 km/h (2 Bft) SW 4,1 C 6,6 C 14,9 km/h (3 Bft)
22.12.2013 11:00 7,2 C 83 % 1015,6 hPa 0,0 l/m 8,0 km/h (2 Bft) SW 4,5 C 6,0 C 15,6 km/h (3 Bft)
22.12.2013 12:00 7,7 C 84 % 1014,8 hPa 0,0 l/m 9,2 km/h (2 Bft) S 5,1 C 5,5 C 18,5 km/h (3 Bft)
22.12.2013 13:00 8,1 C 84 % 1013,9 hPa 0,0 l/m 7,9 km/h (2 Bft) S-SW 5,5 C 6,9 C 15,3 km/h (3 Bft)
22.12.2013 14:00 8,8 C 83 % 1012,9 hPa 0,0 l/m 8,2 km/h (2 Bft) S-SW 6,1 C 7,5 C 16,8 km/h (3 Bft)
22.12.2013 15:00 8,9 C 84 % 1012,2 hPa 0,0 l/m 8,6 km/h (2 Bft) S-SW 6,4 C 7,3 C 16,9 km/h (3 Bft)
22.12.2013 16:00 8,4 C 86 % 1011,7 hPa 0,0 l/m 7,5 km/h (2 Bft) S-SW 6,2 C 7,6 C 14,2 km/h (3 Bft)
22.12.2013 17:00 9,0 C 85 % 1011,5 hPa 0,0 l/m 8,1 km/h (2 Bft) S-SW 6,6 C 7,7 C 16,0 km/h (3 Bft)
22.12.2013 18:00 9,4 C 85 % 1011,3 hPa 0,0 l/m 8,3 km/h (2 Bft) S-SW 6,9 C 8,0 C 17,4 km/h (3 Bft)
22.12.2013 19:00 9,2 C 86 % 1011,3 hPa 0,6 l/m 7,8 km/h (2 Bft) SW 6,9 C 8,1 C 17,8 km/h (3 Bft)
22.12.2013 20:00 8,1 C 90 % 1011,3 hPa 1,8 l/m 3,4 km/h (1 Bft) S-SW 6,6 C 8,1 C 8,4 km/h (2 Bft)
22.12.2013 21:00 8,0 C 89 % 1011,2 hPa 0,0 l/m 6,6 km/h (2 Bft) S-SW 6,3 C 7,5 C 16,1 km/h (3 Bft)
22.12.2013 22:00 7,6 C 88 % 1011,6 hPa 0,2 l/m 9,1 km/h (2 Bft) S-SW 5,8 C 5,6 C 19,3 km/h (3 Bft)
22.12.2013 23:00 7,1 C 89 % 1011,7 hPa 0,0 l/m 6,1 km/h (2 Bft) S-SW 5,4 C 6,8 C 14,8 km/h (3 Bft)
Min-Datum _ 20.12.13 22.12.13 19.12.13 - 16.12.13 - 20.12.13 20.12.13 16.12.13
_ Min-Zeit 03:45 01:40 12:50 - 02:35 - 03:45 03:45 02:35
Minimum _ -1,5 C 61 % 1004,4 hPa - 0,0 km/h (0 Bft) - -2,2 C -1,5 C 0,0 km/h (0 Bft)
Max-Datum _ 16.12.13 20.12.13 20.12.13 19.12.13 21.12.13 - 22.12.13 16.12.13 21.12.13
_ Max-Zeit 14:15 10:45 23:30 09:00 23:55 - 19:10 14:40 23:55
Maximum _ 9,7 C 97 % 1027,3 hPa 1,8 l/m 15,4 km/h
SW (3 Bft)
- 7,0 C 9,6 C 32,2 km/h
SW (5 Bft)
Durchschnitt _ 5,1 C 84 % 1019,1 hPa #7,4 l/m 4,2 km/h (1 Bft) S-SW 2,4 C 4,5 C 8,9 km/h (2 Bft)